Time;durP1;ratioP1;P1;durP2;ratioP2;P2;SDS_P1;SDS_P2;PMS_P1;PMS_P2;Temp;Humidity;BMP_temperature;BMP_pressure;BME280_temperature;BME280_humidity;BME280_pressure;Samples;Min_cycle;Max_cycle;Signal;HPM_P1;HPM_P2
2022/05/10 00:00:45;;;;;;;;;;;15.80;88.70;;;;;;8429854;28;19920;-75
2022/05/10 00:04:49;;;;;;;;;;;15.70;88.70;;;;;;8431798;28;19924;-74
2022/05/10 00:08:51;;;;;;;;;;;15.60;88.70;;;;;;8418256;28;19927;-75
2022/05/10 00:12:52;;;;;;;;;;;15.50;89.30;;;;;;8427285;28;20303;-75
2022/05/10 00:16:54;;;;;;;;;;;15.40;89.20;;;;;;8429504;28;20303;-75
2022/05/10 00:20:56;;;;;;;;;;;15.30;88.80;;;;;;8430152;28;19931;-75
2022/05/10 00:24:58;;;;;;;;;;;15.30;88.80;;;;;;8429788;28;19924;-74
2022/05/10 00:29:01;;;;;;;;;;;15.20;88.90;;;;;;8426081;28;19920;-75
2022/05/10 00:33:03;;;;;;;;;;;15.20;88.70;;;;;;8426837;28;20418;-74
2022/05/10 00:37:05;;;;;;;;;;;15.10;88.80;;;;;;8433076;28;19928;-75
2022/05/10 00:41:10;;;;;;;;;;;15.10;88.60;;;;;;8427304;28;19924;-74
2022/05/10 00:45:15;;;;;;;;;;;15.00;88.80;;;;;;8432496;28;19921;-74
2022/05/10 00:49:25;;;;;;;;;;;14.90;89.10;;;;;;8425601;28;19935;-74
2022/05/10 00:53:30;;;;;;;;;;;14.80;89.10;;;;;;8421398;28;19927;-74
2022/05/10 00:57:38;;;;;;;;;;;14.70;89.00;;;;;;8423540;28;19920;-74
2022/05/10 01:01:40;;;;;;;;;;;14.60;89.20;;;;;;8429693;28;19920;-74
2022/05/10 01:05:56;;;;;;;;;;;14.50;89.00;;;;;;8434826;28;20024;-74
2022/05/10 01:10:01;;;;;;;;;;;14.50;88.90;;;;;;8415072;28;20398;-74
2022/05/10 01:14:16;;;;;;;;;;;14.50;89.20;;;;;;8433857;28;19927;-74
2022/05/10 01:18:20;;;;;;;;;;;14.40;89.00;;;;;;8423040;28;19950;-74
2022/05/10 01:22:25;;;;;;;;;;;14.40;89.50;;;;;;8422914;28;19924;-74
2022/05/10 01:26:46;;;;;;;;;;;14.30;89.10;;;;;;8422801;28;19927;-74
2022/05/10 01:30:47;;;;;;;;;;;14.40;88.70;;;;;;8426000;28;20379;-74
2022/05/10 01:34:51;;;;;;;;;;;14.40;89.20;;;;;;8428252;28;20267;-74
2022/05/10 01:39:01;;;;;;;;;;;14.30;89.60;;;;;;8422990;28;19920;-73
2022/05/10 01:43:27;;;;;;;;;;;14.30;89.00;;;;;;8420762;28;19935;-74
2022/05/10 01:47:30;;;;;;;;;;;14.30;90.10;;;;;;8422209;28;19924;-74
2022/05/10 01:51:43;;;;;;;3.90;2.03;;;14.20;89.90;;;;;;8421615;28;20343;-74
2022/05/10 01:55:50;;;;;;;7.43;2.40;;;14.20;89.90;;;;;;8425045;28;20052;-74
2022/05/10 02:00:04;;;;;;;6.72;2.60;;;14.20;90.20;;;;;;8421134;28;20036;-73
2022/05/10 02:04:19;;;;;;;4.30;2.53;;;14.20;90.10;;;;;;8423589;28;20052;-74
2022/05/10 02:08:49;;;;;;;4.32;2.63;;;14.30;90.20;;;;;;8424984;28;20499;-74
2022/05/10 02:13:07;;;;;;;4.60;2.47;;;14.30;90.40;;;;;;8392607;28;20073;-74
2022/05/10 02:17:16;;;;;;;4.45;2.50;;;14.30;90.20;;;;;;8425896;28;20044;-74
2022/05/10 02:21:24;;;;;;;5.38;2.97;;;14.30;90.30;;;;;;8424661;28;20411;-74
2022/05/10 02:25:33;;;;;;;5.85;3.20;;;14.30;90.40;;;;;;8420199;28;20514;-74
2022/05/10 02:29:41;;;;;;;5.40;3.10;;;14.30;90.50;;;;;;8423008;28;20036;-74
2022/05/10 02:33:45;;;;;;;4.97;3.08;;;14.30;90.60;;;;;;8418675;28;20040;-73
2022/05/10 02:37:47;;;;;;;5.65;3.25;;;14.30;90.60;;;;;;8427146;28;20047;-73
2022/05/10 02:41:50;;;;;;;5.25;3.45;;;14.30;90.80;;;;;;8427580;28;20134;-74
2022/05/10 02:45:54;;;;;;;4.72;2.95;;;14.40;91.00;;;;;;8424938;28;20039;-74
2022/05/10 02:49:57;;;;;;;5.80;2.97;;;14.30;91.30;;;;;;8423097;28;20055;-73
2022/05/10 02:53:59;;;;;;;5.28;3.10;;;14.30;91.70;;;;;;8427400;28;20048;-74
2022/05/10 02:58:11;;;;;;;5.80;3.13;;;14.30;91.60;;;;;;8428154;28;20484;-74
2022/05/10 03:02:19;;;;;;;5.60;3.17;;;14.30;91.60;;;;;;8420041;28;20052;-73
2022/05/10 03:06:24;;;;;;;5.13;3.15;;;14.40;91.90;;;;;;8422841;28;20044;-74
2022/05/10 03:10:26;;;;;;;7.13;3.83;;;14.40;92.00;;;;;;8422626;28;20079;-73
2022/05/10 03:14:28;;;;;;;6.82;4.15;;;14.40;92.20;;;;;;8421802;28;20498;-74
2022/05/10 03:18:29;;;;;;;6.80;4.05;;;14.40;92.30;;;;;;8424584;28;20044;-74
2022/05/10 03:22:31;;;;;;;6.25;4.13;;;14.50;92.50;;;;;;8421762;28;20341;-74
2022/05/10 03:26:33;;;;;;;8.35;4.68;;;14.50;92.40;;;;;;8418588;28;20044;-73
2022/05/10 03:30:35;;;;;;;7.57;5.05;;;14.50;92.10;;;;;;8421739;28;20040;-74
2022/05/10 03:34:55;;;;;;;7.57;4.65;;;14.60;92.10;;;;;;8429201;28;20040;-74
2022/05/10 03:38:56;;;;;;;6.78;4.55;;;14.60;92.40;;;;;;8430948;28;20044;-74
2022/05/10 03:42:58;;;;;;;6.43;4.07;;;14.70;92.40;;;;;;8426712;28;20052;-73
2022/05/10 03:47:00;;;;;;;7.07;3.67;;;14.70;92.60;;;;;;8420787;28;20040;-74
2022/05/10 03:51:01;;;;;;;7.55;4.05;;;14.60;92.60;;;;;;8417241;28;20072;-74
2022/05/10 03:55:04;;;;;;;6.40;3.97;;;14.60;92.80;;;;;;8414945;28;20048;-74
2022/05/10 03:59:14;;;;;;;7.30;4.30;;;14.50;93.00;;;;;;8423823;28;20048;-73
2022/05/10 04:03:16;;;;;;;6.40;3.58;;;14.50;94.10;;;;;;8414311;28;20536;-73
2022/05/10 04:07:17;;;;;;;5.85;3.33;;;14.50;94.10;;;;;;8428815;27;20051;-73
2022/05/10 04:11:19;;;;;;;5.32;3.15;;;14.50;94.20;;;;;;8415251;28;20051;-74
2022/05/10 04:15:21;;;;;;;6.05;3.55;;;14.50;94.00;;;;;;8412453;28;20048;-74
2022/05/10 04:19:22;;;;;;;6.10;3.63;;;14.50;93.80;;;;;;8420983;28;20360;-74
2022/05/10 04:23:24;;;;;;;5.68;3.70;;;14.50;94.30;;;;;;8416267;28;20052;-73
2022/05/10 04:27:43;;;;;;;6.60;3.25;;;14.50;94.50;;;;;;8417347;28;20051;-74
2022/05/10 04:31:44;;;;;;;6.93;3.50;;;14.50;94.80;;;;;;8419012;28;20488;-74
2022/05/10 04:35:46;;;;;;;5.60;3.38;;;14.40;94.80;;;;;;8415582;28;20477;-74
2022/05/10 04:44:10;;;;;;;4.82;3.00;;;14.40;94.80;;;;;;8418089;28;20106;-74
2022/05/10 04:48:12;;;;;;;6.32;3.50;;;14.40;95.10;;;;;;8421737;28;20040;-74
2022/05/10 04:52:14;;;;;;;5.72;3.22;;;14.40;95.30;;;;;;8418574;28;20492;-74
2022/05/10 04:56:16;;;;;;;6.03;3.45;;;14.50;95.40;;;;;;8407728;28;20052;-74
2022/05/10 05:00:18;;;;;;;7.80;3.55;;;14.50;95.30;;;;;;8405350;28;20052;-73
2022/05/10 05:04:20;;;;;;;6.25;3.90;;;14.50;95.30;;;;;;8422944;28;20055;-73
2022/05/10 05:08:22;;;;;;;7.13;3.78;;;14.60;95.50;;;;;;8418481;28;20476;-74
2022/05/10 05:12:24;;;;;;;6.40;3.72;;;14.70;95.40;;;;;;8413376;28;20040;-73
2022/05/10 05:16:25;;;;;;;6.00;3.25;;;14.80;95.40;;;;;;8414786;28;20568;-74
2022/05/10 05:20:27;;;;;;;7.53;3.72;;;14.90;95.50;;;;;;8424218;28;20050;-73
2022/05/10 05:24:29;;;;;;;6.65;3.67;;;14.90;95.40;;;;;;8420438;28;20051;-73
2022/05/10 05:28:31;;;;;;;6.72;3.50;;;15.00;95.40;;;;;;8405025;28;20068;-73
2022/05/10 05:32:34;;;;;;;6.07;3.60;;;15.10;95.40;;;;;;8409838;28;20140;-73
2022/05/10 05:36:36;;;;;;;5.90;3.45;;;15.20;95.50;;;;;;8408666;28;20056;-73
2022/05/10 05:40:38;;;;;;;6.63;3.80;;;15.30;95.50;;;;;;8403107;28;20056;-73
2022/05/10 05:44:40;;;;;;;6.45;3.78;;;15.30;95.40;;;;;;8407934;28;20056;-73
2022/05/10 05:48:43;;;;;;;6.55;3.05;;;15.40;95.60;;;;;;8406983;28;20075;-73
2022/05/10 05:52:46;;;;;;;6.40;3.50;;;15.50;95.60;;;;;;8410302;28;20040;-74
2022/05/10 05:56:50;;;;;;;6.80;3.75;;;15.50;95.60;;;;;;8373609;28;20317;-74
2022/05/10 06:00:51;;;;;;;6.28;3.10;;;15.60;95.60;;;;;;8371909;28;20057;-74
2022/05/10 06:04:53;;;;;;;;;;;15.70;95.70;;;;;;8387380;28;20373;-73
2022/05/10 06:08:55;;;;;;;;;;;15.80;95.80;;;;;;8366307;28;20007;-74
2022/05/10 06:13:03;;;;;;;;;;;15.90;95.80;;;;;;8360311;28;19928;-74
2022/05/10 06:17:05;;;;;;;;;;;16.00;96.00;;;;;;8364619;28;19927;-74
2022/05/10 06:21:06;;;;;;;;;;;16.10;96.10;;;;;;8358843;28;19951;-74
2022/05/10 06:25:09;;;;;;;;;;;16.20;96.20;;;;;;8375078;28;19924;-74
2022/05/10 06:29:11;;;;;;;;;;;16.40;96.30;;;;;;8356514;28;19932;-74
2022/05/10 06:33:13;;;;;;;;;;;16.50;96.70;;;;;;8359544;28;20292;-74
2022/05/10 06:38:16;;;;;;;;;;;16.80;97.00;;;;;;8359160;28;19924;-74
2022/05/10 06:41:36;;;;;;;;;;;17.00;97.00;;;;;;8358201;28;19924;-74
2022/05/10 06:45:39;;;;;;;;;;;17.10;97.10;;;;;;8361196;28;19951;-74
2022/05/10 06:49:41;;;;;;;;;;;17.10;97.00;;;;;;8360887;28;19928;-74
2022/05/10 06:53:46;;;;;;;;;;;17.20;97.20;;;;;;8362700;28;19939;-75
2022/05/10 06:57:47;;;;;;;;;;;17.30;97.30;;;;;;8358281;28;20291;-75
2022/05/10 07:01:49;;;;;;;;;;;17.30;97.30;;;;;;8362914;28;19924;-75
2022/05/10 07:05:51;;;;;;;;;;;17.40;97.30;;;;;;8358115;28;20296;-74
2022/05/10 07:09:52;;;;;;;;;;;17.50;97.40;;;;;;8376196;28;19940;-74
2022/05/10 07:13:54;;;;;;;;;;;17.60;97.50;;;;;;8360278;28;19925;-74
2022/05/10 07:17:56;;;;;;;;;;;17.70;97.90;;;;;;8367151;28;20003;-74
2022/05/10 07:21:57;;;;;;;;;;;17.70;97.80;;;;;;8377487;28;19924;-75
2022/05/10 07:25:59;;;;;;;;;;;17.80;97.90;;;;;;8372615;28;19935;-74
2022/05/10 07:30:00;;;;;;;;;;;17.90;97.90;;;;;;8374222;28;19924;-75
2022/05/10 07:34:02;;;;;;;;;;;18.00;98.00;;;;;;8379438;28;19927;-74
2022/05/10 07:38:17;;;;;;;;;;;18.10;98.20;;;;;;8398676;28;19963;-74
2022/05/10 07:42:19;;;;;;;;;;;18.20;98.30;;;;;;8373537;28;19931;-75
2022/05/10 07:46:20;;;;;;;;;;;18.30;98.40;;;;;;8376288;28;19943;-74
2022/05/10 07:50:22;;;;;;;;;;;18.40;98.90;;;;;;8371737;28;20330;-75
2022/05/10 07:54:24;;;;;;;;;;;18.50;98.70;;;;;;8380587;28;19921;-74
2022/05/10 07:58:26;;;;;;;;;;;18.50;99.00;;;;;;8373130;28;19944;-75
2022/05/10 08:02:28;;;;;;;;;;;18.60;98.90;;;;;;8378441;28;20360;-74
2022/05/10 08:06:30;;;;;;;;;;;18.70;99.30;;;;;;8380470;28;19920;-74
2022/05/10 08:10:32;;;;;;;;;;;18.80;99.20;;;;;;8377149;28;19943;-74
2022/05/10 08:14:33;;;;;;;;;;;18.90;99.50;;;;;;8394153;28;20364;-75
2022/05/10 08:18:36;;;;;;;;;;;19.00;99.40;;;;;;8376626;28;19928;-74
2022/05/10 08:22:38;;;;;;;;;;;19.10;99.90;;;;;;8391740;28;20035;-74
2022/05/10 08:26:39;;;;;;;;;;;19.30;99.90;;;;;;8380855;28;19931;-75
2022/05/10 08:30:42;;;;;;;;;;;19.40;99.90;;;;;;8363009;28;19932;-75
2022/05/10 08:34:43;;;;;;;;;;;19.60;99.90;;;;;;8361483;28;19939;-74
2022/05/10 08:38:46;;;;;;;;;;;19.80;99.90;;;;;;8363301;28;19993;-75
2022/05/10 08:42:48;;;;;;;;;;;19.90;99.90;;;;;;8364079;28;19921;-74
2022/05/10 08:46:55;;;;;;;;;;;20.20;99.90;;;;;;8356575;28;20375;-75
2022/05/10 08:50:59;;;;;;;;;;;20.30;99.90;;;;;;8360497;28;20360;-75
2022/05/10 08:55:02;;;;;;;;;;;20.40;99.90;;;;;;8358661;28;19936;-75
2022/05/10 08:59:11;;;;;;;;;;;20.70;99.90;;;;;;8359900;28;19920;-75
2022/05/10 09:03:33;;;;;;;;;;;20.80;99.90;;;;;;8356766;28;20008;-74
2022/05/10 09:07:41;;;;;;;;;;;20.90;99.90;;;;;;8391474;27;20444;-75
2022/05/10 09:11:47;;;;;;;;;;;21.10;99.90;;;;;;8391515;28;19921;-74
2022/05/10 09:15:51;;;;;;;;;;;21.30;99.90;;;;;;8357137;28;20299;-74
2022/05/10 09:19:52;;;;;;;;;;;21.40;99.90;;;;;;8360074;28;19921;-75
2022/05/10 09:24:27;;;;;;;;;;;21.50;99.90;;;;;;8377448;28;20032;-75
2022/05/10 09:28:33;;;;;;;;;;;21.50;99.90;;;;;;8366883;28;19944;-74
2022/05/10 09:37:09;;;;;;;;;;;21.70;99.90;;;;;;8374533;28;19928;-74
2022/05/10 09:41:25;;;;;;;;;;;21.80;99.50;;;;;;8373667;28;19979;-74
2022/05/10 09:45:27;;;;;;;;;;;21.90;99.20;;;;;;8372543;28;19928;-75
2022/05/10 09:49:34;;;;;;;;;;;22.00;99.60;;;;;;8374387;28;19920;-75
2022/05/10 09:53:39;;;;;;;;;;;22.20;98.30;;;;;;8373400;28;24694;-74
2022/05/10 09:57:43;;;;;;;;;;;22.30;99.90;;;;;;8372060;28;19920;-75
2022/05/10 10:01:47;;;;;;;;;;;22.50;99.90;;;;;;8374858;28;19955;-75
2022/05/10 10:05:48;;;;;;;;;;;22.70;99.90;;;;;;8371548;28;19921;-74
2022/05/10 10:10:15;;;;;;;;;;;22.70;99.80;;;;;;8373015;28;19915;-76
2022/05/10 10:14:39;;;;;;;;;;;22.70;99.50;;;;;;8372526;28;19915;-74
2022/05/10 10:18:47;;;;;;;;;;;22.70;99.70;;;;;;8374917;28;19934;-75
2022/05/10 10:22:51;;;;;;;;;;;22.70;99.20;;;;;;8372604;28;25055;-75
2022/05/10 10:27:22;;;;;;;;;;;22.90;99.30;;;;;;8374447;28;19924;-75
2022/05/10 10:31:26;;;;;;;;;;;23.10;99.90;;;;;;8334255;28;20375;-75
2022/05/10 10:35:34;;;;;;;;;;;23.30;98.90;;;;;;8374162;28;19921;-75
2022/05/10 10:39:45;;;;;;;;;;;23.30;98.30;;;;;;8357033;28;20011;-75
2022/05/10 10:43:58;;;;;;;;;;;23.20;98.00;;;;;;8356705;28;19927;-75
2022/05/10 10:48:12;;;;;;;7.25;3.28;;;23.20;97.80;;;;;;8377398;28;19928;-74
2022/05/10 10:52:24;;;;;;;;;;;23.20;96.80;;;;;;8367995;28;20041;-74
2022/05/10 10:56:26;;;;;;;;;;;23.20;97.10;;;;;;8369622;28;19925;-74
2022/05/10 11:00:37;;;;;;;;;;;23.20;97.00;;;;;;8384183;28;19971;-75
2022/05/10 11:04:42;;;;;;;;;;;23.30;96.20;;;;;;8389979;28;20240;-75
2022/05/10 11:09:02;;;;;;;;;;;23.40;95.80;;;;;;8414723;27;19928;-75
2022/05/10 11:13:18;;;;;;;;;;;23.40;96.00;;;;;;8398679;28;20075;-76
2022/05/10 11:17:34;;;;;;;;;;;23.50;95.10;;;;;;8376678;28;20422;-74
2022/05/10 11:21:42;;;;;;;;;;;23.70;95.10;;;;;;8367398;28;20334;-74
2022/05/10 11:25:47;;;;;;;;;;;23.60;93.30;;;;;;8394584;28;20340;-74
2022/05/10 11:30:05;;;;;;;;;;;23.60;95.00;;;;;;8387051;28;19927;-75
2022/05/10 11:34:26;;;;;;;;;;;23.70;95.30;;;;;;8372503;28;20388;-74
2022/05/10 11:38:54;;;;;;;;;;;23.80;93.70;;;;;;8368236;28;19920;-74
2022/05/10 11:43:14;;;;;;;;;;;23.70;94.60;;;;;;8326005;28;19921;-74
2022/05/10 11:47:28;;;;;;;;;;;23.80;95.30;;;;;;8338641;28;19921;-74
2022/05/10 11:51:39;;;;;;;;;;;23.80;95.10;;;;;;8339796;28;19925;-75
2022/05/10 11:55:55;;;;;;;;;;;23.80;94.50;;;;;;8335932;28;20047;-74
2022/05/10 12:00:15;;;;;;;;;;;23.80;94.40;;;;;;8349090;28;19925;-75
2022/05/10 12:04:32;;;;;;;;;;;23.70;93.80;;;;;;8345790;28;19921;-74
2022/05/10 12:08:35;;;;;;;;;;;23.60;93.80;;;;;;8330839;28;19928;-75
2022/05/10 12:12:42;;;;;;;;;;;23.70;94.30;;;;;;8329091;28;19925;-74
2022/05/10 12:21:21;;;;;;;;;;;23.80;93.80;;;;;;8344651;28;19921;-74
2022/05/10 12:25:51;;;;;;;;;;;23.80;93.30;;;;;;8346413;28;25074;-74
2022/05/10 12:29:53;;;;;;;;;;;23.90;93.90;;;;;;8345266;28;19924;-74
2022/05/10 12:33:58;;;;;;;;;;;24.00;92.70;;;;;;8332708;28;20364;-75
2022/05/10 12:38:00;;;;;;;;;;;24.20;93.80;;;;;;8343233;28;19928;-74
2022/05/10 12:42:06;;;;;;;;;;;24.40;93.20;;;;;;8358687;28;19924;-74
2022/05/10 12:46:08;;;;;;;;;;;24.40;93.40;;;;;;8378824;28;20315;-74
2022/05/10 12:50:21;;;;;;;;;;;24.30;93.40;;;;;;8408265;27;20309;-74
2022/05/10 12:54:27;;;;;;;;;;;24.30;94.00;;;;;;8359824;28;20379;-74
2022/05/10 12:58:34;;;;;;;;;;;24.20;94.00;;;;;;8367875;28;19920;-74
2022/05/10 13:02:38;;;;;;;;;;;24.20;94.40;;;;;;8374259;28;19924;-73
2022/05/10 13:06:58;;;;;;;;;;;24.20;94.00;;;;;;8392401;28;19933;-75
2022/05/10 13:11:00;;;;;;;;;;;24.20;93.90;;;;;;8367329;28;20585;-74
2022/05/10 13:15:11;;;;;;;;;;;24.10;94.00;;;;;;8358469;28;19928;-74
2022/05/10 13:19:12;;;;;;;;;;;24.10;93.30;;;;;;8364460;28;19931;-74
2022/05/10 13:23:15;;;;;;;;;;;23.90;93.90;;;;;;8362435;28;19944;-75
2022/05/10 13:27:33;;;;;;;;;;;23.80;93.90;;;;;;8388290;28;19939;-74
2022/05/10 13:31:37;;;;;;;;;;;23.80;93.80;;;;;;8372805;28;20335;-75
2022/05/10 13:35:39;;;;;;;;;;;23.60;93.60;;;;;;8359563;28;20386;-74
2022/05/10 13:39:40;;;;;;;;;;;23.50;93.60;;;;;;8359044;28;20211;-76
2022/05/10 13:43:44;;;;;;;;;;;23.50;93.60;;;;;;8361500;28;19940;-75
2022/05/10 13:47:48;;;;;;;;;;;23.50;93.80;;;;;;8378689;28;19928;-75
2022/05/10 13:51:51;;;;;;;;;;;23.50;93.70;;;;;;8364262;28;19920;-75
2022/05/10 13:55:54;;;;;;;;;;;23.40;93.60;;;;;;8359794;28;19925;-75
2022/05/10 13:59:57;;;;;;;;;;;23.40;93.50;;;;;;8362853;28;19924;-75
2022/05/10 14:04:06;;;;;;;;;;;23.40;93.40;;;;;;8375308;28;19943;-74
2022/05/10 14:08:24;;;;;;;;;;;23.40;93.60;;;;;;8362321;28;19932;-75
2022/05/10 14:12:34;;;;;;;;;;;23.30;93.20;;;;;;8371444;28;19920;-75
2022/05/10 14:16:37;;;;;;;;;;;23.10;92.80;;;;;;8356948;28;19924;-75
2022/05/10 14:20:41;;;;;;;;;;;23.00;92.70;;;;;;8360123;28;19965;-75
2022/05/10 14:24:45;;;;;;;;;;;22.90;92.90;;;;;;8364636;28;20291;-75
2022/05/10 14:28:54;;;;;;;2.60;1.35;;;22.80;92.10;;;;;;8363754;28;19927;-74
2022/05/10 14:32:55;;;;;;;3.85;1.52;;;22.70;92.10;;;;;;8363217;28;20052;-75
2022/05/10 14:36:57;;;;;;;3.38;1.42;;;22.50;91.30;;;;;;8359713;28;20044;-75
2022/05/10 14:40:59;;;;;;;3.78;1.42;;;22.30;91.00;;;;;;8353247;28;20049;-74
2022/05/10 14:45:25;;;;;;;2.88;1.27;;;22.20;90.00;;;;;;8362555;28;20717;-74
2022/05/10 14:49:35;;;;;;;;;;;22.10;88.80;;;;;;8359486;28;20049;-74
2022/05/10 14:53:39;;;;;;;;;;;21.90;88.70;;;;;;8359782;28;19924;-75
2022/05/10 14:57:42;;;;;;;;;;;21.90;89.70;;;;;;8358277;28;20268;-75
2022/05/10 15:01:44;;;;;;;;;;;21.80;89.20;;;;;;8353474;28;20285;-75
2022/05/10 15:05:50;;;;;;;;;;;21.80;89.00;;;;;;8387430;28;20291;-75
2022/05/10 15:09:52;;;;;;;;;;;21.80;89.20;;;;;;8372959;28;19928;-74
2022/05/10 15:13:54;;;;;;;;;;;21.70;89.80;;;;;;8357003;28;20398;-75
2022/05/10 15:22:16;;;;;;;;;;;21.60;89.00;;;;;;8357111;28;19924;-74
2022/05/10 15:26:19;;;;;;;;;;;21.50;88.50;;;;;;8355066;28;19928;-74
2022/05/10 15:30:20;;;;;;;;;;;21.40;88.50;;;;;;8357828;28;19921;-74
2022/05/10 15:38:42;;;;;;;;;;;21.20;88.40;;;;;;8369028;28;19933;-74
2022/05/10 15:42:44;;;;;;;;;;;21.20;88.40;;;;;;8360898;28;20310;-74
2022/05/10 15:46:46;;;;;;;;;;;21.10;88.20;;;;;;8362364;28;19924;-75
2022/05/10 15:50:47;;;;;;;;;;;21.10;88.40;;;;;;8361420;28;19928;-74
2022/05/10 15:54:49;;;;;;;;;;;21.10;87.90;;;;;;8362098;28;20332;-74
2022/05/10 15:58:51;;;;;;;;;;;21.10;87.80;;;;;;8374675;28;20454;-74
2022/05/10 16:02:53;;;;;;;;;;;21.10;87.50;;;;;;8355509;28;20356;-74
2022/05/10 16:06:55;;;;;;;;;;;21.10;87.80;;;;;;8359687;28;19928;-74
2022/05/10 16:10:57;;;;;;;;;;;21.10;87.70;;;;;;8374907;28;19947;-74
2022/05/10 16:14:59;;;;;;;;;;;21.10;87.30;;;;;;8357691;28;19925;-75
2022/05/10 16:19:01;;;;;;;;;;;21.10;87.10;;;;;;8359428;28;19960;-75
2022/05/10 16:23:03;;;;;;;;;;;21.00;87.40;;;;;;8380155;28;19935;-75
2022/05/10 16:31:29;;;;;;;;;;;21.00;87.90;;;;;;8358794;28;19921;-74
2022/05/10 16:35:34;;;;;;;;;;;20.90;88.00;;;;;;8363725;28;20023;-74
2022/05/10 16:39:37;;;;;;;;;;;20.80;88.20;;;;;;8370005;28;19928;-74
2022/05/10 16:43:38;;;;;;;;;;;20.70;88.30;;;;;;8382312;27;19925;-74
2022/05/10 16:47:40;;;;;;;;;;;20.60;88.10;;;;;;8362743;28;20308;-74
2022/05/10 16:51:42;;;;;;;;;;;20.40;88.20;;;;;;8392504;27;19924;-75
2022/05/10 16:55:43;;;;;;;;;;;20.40;88.20;;;;;;8358272;28;19929;-74
2022/05/10 16:59:49;;;;;;;;;;;20.30;88.20;;;;;;8359802;28;19929;-74
2022/05/10 17:03:54;;;;;;;;;;;20.20;88.30;;;;;;8359615;28;20407;-75
2022/05/10 17:07:56;;;;;;;;;;;20.10;88.20;;;;;;8374783;28;19921;-75
2022/05/10 17:11:57;;;;;;;;;;;20.00;88.20;;;;;;8363015;28;19951;-74
2022/05/10 17:15:59;;;;;;;;;;;19.90;88.20;;;;;;8356856;28;20230;-75
2022/05/10 17:20:01;;;;;;;;;;;19.80;88.30;;;;;;8373112;28;19920;-74
2022/05/10 17:24:03;;;;;;;;;;;19.80;88.30;;;;;;8359832;28;20357;-74
2022/05/10 17:32:13;;;;;;;;;;;19.60;88.60;;;;;;8358442;28;19920;-75
2022/05/10 17:36:15;;;;;;;;;;;19.50;88.10;;;;;;8357878;28;19920;-74
2022/05/10 17:40:16;;;;;;;;;;;19.50;88.70;;;;;;8358509;28;19928;-74
2022/05/10 17:44:18;;;;;;;;;;;19.40;88.70;;;;;;8359221;28;20320;-75
2022/05/10 17:48:20;;;;;;;;;;;19.30;88.50;;;;;;8356904;28;19924;-74
2022/05/10 17:52:22;;;;;;;;;;;19.30;88.50;;;;;;8356271;28;19927;-74
2022/05/10 17:56:25;;;;;;;;;;;19.30;88.80;;;;;;8360858;28;19924;-75
2022/05/10 18:00:27;;;;;;;;;;;19.20;88.70;;;;;;8356291;28;19920;-75
2022/05/10 18:04:32;;;;;;;;;;;19.10;89.00;;;;;;8364794;28;19920;-75
2022/05/10 18:08:35;;;;;;;;;;;19.10;88.80;;;;;;8358849;28;20026;-74
2022/05/10 18:12:37;;;;;;;;;;;19.10;88.90;;;;;;8358348;28;19924;-75
2022/05/10 18:16:39;;;;;;;;;;;19.10;89.40;;;;;;8361652;28;19920;-75
2022/05/10 18:20:40;;;;;;;;;;;19.00;90.00;;;;;;8393632;28;20300;-75
2022/05/10 18:24:42;;;;;;;;;;;18.90;89.70;;;;;;8358497;28;19928;-74
2022/05/10 18:28:44;;;;;;;;;;;18.80;89.80;;;;;;8357982;28;19925;-74
2022/05/10 18:32:46;;;;;;;;;;;18.80;90.00;;;;;;8354216;28;19921;-74
2022/05/10 18:36:47;;;;;;;;;;;18.80;90.00;;;;;;8359961;28;20427;-74
2022/05/10 18:40:49;;;;;;;;;;;18.60;90.90;;;;;;8357809;28;19928;-75
2022/05/10 18:44:51;;;;;;;;;;;18.50;91.90;;;;;;8357671;28;19963;-74
2022/05/10 18:48:53;;;;;;;;;;;18.40;92.30;;;;;;8356113;28;19920;-74
2022/05/10 18:52:55;;;;;;;;;;;18.30;92.90;;;;;;8362076;28;19940;-74
2022/05/10 18:56:57;;;;;;;;;;;18.30;92.70;;;;;;8359966;28;19928;-74
2022/05/10 19:00:59;;;;;;;;;;;18.30;92.40;;;;;;8359913;28;19920;-74
2022/05/10 19:05:00;;;;;;;;;;;18.20;92.60;;;;;;8355169;28;19921;-74
2022/05/10 19:09:02;;;;;;;;;;;18.10;92.70;;;;;;8355440;28;19928;-74
2022/05/10 19:13:04;;;;;;;;;;;17.90;92.90;;;;;;8363684;28;19931;-74
2022/05/10 19:17:06;;;;;;;;;;;17.90;92.50;;;;;;8360773;28;19921;-74
2022/05/10 19:21:08;;;;;;;;;;;17.70;93.30;;;;;;8351184;28;19928;-74
2022/05/10 19:25:12;;;;;;;3.50;1.30;;;17.60;93.10;;;;;;8360098;28;19921;-74
2022/05/10 19:29:14;;;;;;;3.72;1.17;;;17.50;93.50;;;;;;8363033;28;20044;-74
2022/05/10 19:33:18;;;;;;;2.08;1.10;;;17.30;93.30;;;;;;8361533;28;20045;-74
2022/05/10 19:37:20;;;;;;;4.45;1.20;;;17.30;92.60;;;;;;8364012;28;20045;-74
2022/05/10 19:41:21;;;;;;;;;;;17.20;92.70;;;;;;8356291;28;19920;-74
2022/05/10 19:45:23;;;;;;;;;;;17.10;92.30;;;;;;8361063;28;19927;-74
2022/05/10 19:49:26;;;;;;;2.78;1.20;;;17.10;91.80;;;;;;8362248;28;19924;-74
2022/05/10 19:53:28;;;;;;;;;;;17.10;92.30;;;;;;8361267;28;20041;-74
2022/05/10 19:57:30;;;;;;;;;;;17.00;92.00;;;;;;8363062;28;19927;-74
2022/05/10 20:05:58;;;;;;;;;;;16.80;92.30;;;;;;8367850;28;19920;-74
2022/05/10 20:10:00;;;;;;;;;;;16.80;92.50;;;;;;8363841;28;19920;-74
2022/05/10 20:14:22;;;;;;;;;;;16.70;92.70;;;;;;8365136;28;19979;-73
2022/05/10 20:18:23;;;;;;;;;;;16.60;93.10;;;;;;8363332;28;19925;-74
2022/05/10 20:22:25;;;;;;;;;;;16.60;92.70;;;;;;8378673;28;19931;-73
2022/05/10 20:26:27;;;;;;;;;;;16.60;92.60;;;;;;8358353;28;19954;-73
2022/05/10 20:30:29;;;;;;;;;;;16.60;92.80;;;;;;8376469;28;19963;-73
2022/05/10 20:34:30;;;;;;;;;;;16.50;93.00;;;;;;8366156;28;19928;-74
2022/05/10 20:38:32;;;;;;;;;;;16.50;93.30;;;;;;8354976;28;19967;-74
2022/05/10 20:42:34;;;;;;;;;;;16.40;93.70;;;;;;8358167;28;20030;-74
2022/05/10 20:46:37;;;;;;;;;;;16.40;93.60;;;;;;8354959;28;19932;-73
2022/05/10 20:50:40;;;;;;;;;;;16.40;93.40;;;;;;8354956;28;19952;-73
2022/05/10 20:54:42;;;;;;;;;;;16.40;94.00;;;;;;8361245;28;19936;-74
2022/05/10 20:58:44;;;;;;;;;;;16.40;93.90;;;;;;8364806;28;19921;-74
2022/05/10 21:02:46;;;;;;;;;;;16.50;94.00;;;;;;8397529;28;19924;-74
2022/05/10 21:11:11;;;;;;;;;;;16.50;94.20;;;;;;8366519;28;19928;-74
2022/05/10 21:15:13;;;;;;;;;;;16.60;94.20;;;;;;8382177;28;19920;-73
2022/05/10 21:19:15;;;;;;;;;;;16.60;94.30;;;;;;8374199;28;20280;-74
2022/05/10 21:23:17;;;;;;;;;;;16.70;94.20;;;;;;8388282;28;20070;-74
2022/05/10 21:27:18;;;;;;;;;;;16.70;94.30;;;;;;8417145;27;19927;-74
2022/05/10 21:31:22;;;;;;;;;;;16.60;94.50;;;;;;8377944;28;19920;-74
2022/05/10 21:35:28;;;;;;;;;;;16.60;94.90;;;;;;8413000;27;20325;-74
2022/05/10 21:39:30;;;;;;;;;;;16.50;94.50;;;;;;8381589;28;19928;-74
2022/05/10 21:43:32;;;;;;;;;;;16.40;94.60;;;;;;8403232;28;19928;-74
2022/05/10 21:47:35;;;;;;;;;;;16.40;95.60;;;;;;8377203;28;20379;-74
2022/05/10 21:51:36;;;;;;;;;;;16.30;95.90;;;;;;8372987;28;19933;-74
2022/05/10 21:55:38;;;;;;;;;;;16.20;96.10;;;;;;8387515;28;20015;-73
2022/05/10 21:59:44;;;;;;;;;;;16.20;97.90;;;;;;8370501;28;20011;-74
2022/05/10 22:03:45;;;;;;;;;;;16.20;97.10;;;;;;8375794;28;19986;-74
2022/05/10 22:07:47;;;;;;;;;;;16.20;97.70;;;;;;8367933;28;20564;-74
2022/05/10 22:11:56;;;;;;;;;;;16.20;98.40;;;;;;8377466;28;20338;-74
2022/05/10 22:15:58;;;;;;;;;;;16.20;98.00;;;;;;8374934;28;19928;-74
2022/05/10 22:20:02;;;;;;;;;;;16.30;97.80;;;;;;8377448;28;20005;-74
2022/05/10 22:24:05;;;;;;;;;;;16.30;97.50;;;;;;8379133;28;19924;-73
2022/05/10 22:28:06;;;;;;;;;;;16.30;97.60;;;;;;8392201;28;20311;-73
2022/05/10 22:32:08;;;;;;;;;;;16.30;97.10;;;;;;8382101;28;19920;-74
2022/05/10 22:36:09;;;;;;;;;;;16.30;96.80;;;;;;8384849;28;20334;-74
2022/05/10 22:40:12;;;;;;;;;;;16.30;97.10;;;;;;8379418;28;19931;-73
2022/05/10 22:44:14;;;;;;;;;;;16.30;97.30;;;;;;8382001;28;19936;-74
2022/05/10 22:48:16;;;;;;;;;;;16.30;96.90;;;;;;8359057;28;19971;-74
2022/05/10 22:52:17;;;;;;;;;;;16.30;97.00;;;;;;8377307;28;19951;-74
2022/05/10 22:56:19;;;;;;;;;;;16.30;96.80;;;;;;8380709;28;19920;-73
2022/05/10 23:00:21;;;;;;;;;;;16.30;96.80;;;;;;8374854;28;19921;-74
2022/05/10 23:04:22;;;;;;;;;;;16.30;97.00;;;;;;8378045;28;19947;-74
2022/05/10 23:08:24;;;;;;;;;;;16.20;97.00;;;;;;8378865;28;19928;-74
2022/05/10 23:12:26;;;;;;;;;;;16.20;97.20;;;;;;8373861;28;19931;-74
2022/05/10 23:16:28;;;;;;;;;;;16.20;97.00;;;;;;8373986;28;20351;-74
2022/05/10 23:20:29;;;;;;;;;;;16.10;96.90;;;;;;8392569;28;20016;-73
2022/05/10 23:24:32;;;;;;;;;;;16.10;96.60;;;;;;8374875;28;19924;-74
2022/05/10 23:28:34;;;;;;;;;;;16.10;96.40;;;;;;8382433;28;20202;-74
2022/05/10 23:32:36;;;;;;;;;;;16.00;96.80;;;;;;8374656;28;19924;-74
2022/05/10 23:36:38;;;;;;;;;;;15.90;96.70;;;;;;8378305;28;19924;-74
2022/05/10 23:40:40;;;;;;;;;;;15.90;96.90;;;;;;8369834;28;19924;-73
2022/05/10 23:44:42;;;;;;;;;;;15.90;96.70;;;;;;8387398;28;19929;-73
2022/05/10 23:48:43;;;;;;;;;;;15.90;96.80;;;;;;8378305;28;20007;-74